createdAt,value
2019-01-09T00:03:50.480Z,21.87
2019-01-09T00:06:18.428Z,22.43
2019-01-09T00:08:46.444Z,22.05
2019-01-09T00:11:14.371Z,19.60
2019-01-09T00:13:42.348Z,20.50
2019-01-09T00:16:10.326Z,21.50
2019-01-09T00:18:38.339Z,20.20
2019-01-09T00:21:06.274Z,19.30
2019-01-09T00:23:34.326Z,21.10
2019-01-09T00:26:02.329Z,23.12
2019-01-09T00:28:30.265Z,21.25
2019-01-09T00:30:58.260Z,21.63
2019-01-09T00:33:26.184Z,19.82
2019-01-09T00:35:54.172Z,19.33
2019-01-09T00:38:22.157Z,19.80
2019-01-09T00:40:50.105Z,17.03
2019-01-09T00:43:18.397Z,17.10
2019-01-09T00:45:46.341Z,17.50
2019-01-09T00:48:14.334Z,17.40
2019-01-09T00:50:42.436Z,19.40
2019-01-09T00:53:10.483Z,18.77
2019-01-09T00:55:38.420Z,16.73
2019-01-09T00:58:06.404Z,14.90
2019-01-09T01:00:34.665Z,15.83
2019-01-09T01:03:21.706Z,15.23
2019-01-09T01:08:59.652Z,16.70
2019-01-09T01:11:46.809Z,18.10
2019-01-09T01:17:17.718Z,20.03
2019-01-09T01:20:04.650Z,18.93
2019-01-09T01:22:51.681Z,20.60
2019-01-09T01:25:38.781Z,18.40
2019-01-09T01:28:26.449Z,18.60
2019-01-09T01:31:13.455Z,19.30
2019-01-09T01:33:54.319Z,19.27
2019-01-09T01:36:41.241Z,22.43
2019-01-09T01:39:28.242Z,20.70
2019-01-09T01:42:15.179Z,20.30
2019-01-09T01:45:02.170Z,21.13
2019-01-09T01:47:49.205Z,20.90
2019-01-09T01:50:36.192Z,21.00
2019-01-09T01:53:23.131Z,19.87
2019-01-09T01:56:10.241Z,18.60
2019-01-09T01:58:45.364Z,21.83
2019-01-09T02:01:19.456Z,19.90
2019-01-09T02:04:06.412Z,19.48
2019-01-09T02:06:53.509Z,18.13
2019-01-09T02:09:36.240Z,17.10
2019-01-09T02:12:23.185Z,14.67
2019-01-09T02:15:10.410Z,15.70
2019-01-09T02:17:57.395Z,14.40
2019-01-09T02:20:44.434Z,15.93
2019-01-09T02:23:31.415Z,14.77
2019-01-09T02:26:18.461Z,14.73
2019-01-09T02:29:05.395Z,15.40
2019-01-09T02:31:36.761Z,17.60
2019-01-09T02:34:04.698Z,16.50
2019-01-09T02:36:32.674Z,19.00
2019-01-09T02:39:00.632Z,22.27
2019-01-09T02:41:28.657Z,18.53
2019-01-09T02:43:56.575Z,21.23
2019-01-09T02:46:24.582Z,18.63
2019-01-09T02:48:52.517Z,19.10
2019-01-09T02:51:20.507Z,19.37
2019-01-09T02:53:48.490Z,17.67
2019-01-09T02:56:16.410Z,17.30
2019-01-09T02:58:44.406Z,17.00
2019-01-09T03:01:12.391Z,19.67
2019-01-09T03:03:40.439Z,18.00
2019-01-09T03:06:08.432Z,20.67
2019-01-09T03:08:36.472Z,16.60
2019-01-09T03:11:23.537Z,19.87
2019-01-09T03:13:51.558Z,17.40
2019-01-09T03:16:38.571Z,17.80
2019-01-09T03:19:06.494Z,16.80
2019-01-09T03:21:34.527Z,18.80
2019-01-09T03:24:02.484Z,20.23
2019-01-09T03:26:30.507Z,18.50
2019-01-09T03:28:58.447Z,19.43
2019-01-09T03:31:26.384Z,16.80
2019-01-09T03:33:54.397Z,16.23
2019-01-09T03:36:22.340Z,19.63
2019-01-09T03:38:50.343Z,17.33
2019-01-09T03:41:37.272Z,16.20
2019-01-09T03:44:05.165Z,16.57
2019-01-09T03:46:33.132Z,18.30
2019-01-09T03:49:01.169Z,18.23
2019-01-09T03:51:29.200Z,18.93
2019-01-09T03:53:57.260Z,16.03
2019-01-09T03:56:25.252Z,16.60
2019-01-09T03:58:53.184Z,15.80
2019-01-09T04:01:21.172Z,16.30
2019-01-09T04:03:49.121Z,14.30
2019-01-09T04:06:17.121Z,16.33
2019-01-09T04:08:45.057Z,17.70
2019-01-09T04:11:13.077Z,19.93
2019-01-09T04:13:41.007Z,18.33
2019-01-09T04:16:08.996Z,14.40
2019-01-09T04:18:36.950Z,16.20
2019-01-09T04:21:04.942Z,16.80
2019-01-09T04:23:33.012Z,16.63
2019-01-09T04:26:00.943Z,17.35
2019-01-09T04:28:28.922Z,16.77
2019-01-09T04:30:56.888Z,19.00
2019-01-09T04:33:24.899Z,18.67
2019-01-09T04:35:53.227Z,18.83
2019-01-09T04:38:21.200Z,18.27
2019-01-09T04:40:49.178Z,17.30
2019-01-09T04:43:17.157Z,17.83
2019-01-09T04:45:45.168Z,16.03
2019-01-09T04:48:13.131Z,17.50
2019-01-09T04:50:41.061Z,16.37
2019-01-09T04:53:09.028Z,17.93
2019-01-09T04:55:37.023Z,18.10
2019-01-09T04:58:05.085Z,16.77
2019-01-09T05:00:33.138Z,15.97
2019-01-09T05:03:01.114Z,14.93
2019-01-09T05:05:29.057Z,14.77
2019-01-09T05:07:57.476Z,13.80
2019-01-09T05:10:25.523Z,15.67
2019-01-09T05:12:53.506Z,15.63
2019-01-09T05:15:21.484Z,19.27
2019-01-09T05:17:49.455Z,17.20
2019-01-09T05:20:17.425Z,16.80
2019-01-09T05:22:45.419Z,14.73
2019-01-09T05:25:13.462Z,16.00
2019-01-09T05:30:21.225Z,16.73
2019-01-09T05:32:49.124Z,15.53
2019-01-09T05:35:17.105Z,17.30
2019-01-09T05:37:45.083Z,17.60
2019-01-09T05:40:13.031Z,17.67
2019-01-09T05:42:41.111Z,17.90
2019-01-09T05:45:09.080Z,15.90
2019-01-09T05:47:37.061Z,15.53
2019-01-09T05:50:05.095Z,15.20
2019-01-09T05:52:33.084Z,14.37
2019-01-09T05:55:01.079Z,14.90
2019-01-09T05:57:29.040Z,14.17
2019-01-09T05:59:57.045Z,13.23
2019-01-09T06:02:25.073Z,15.90
2019-01-09T06:04:53.072Z,16.00
2019-01-09T06:07:21.008Z,15.60
2019-01-09T06:09:49.266Z,15.83
2019-01-09T06:12:17.242Z,12.40
2019-01-09T06:14:45.203Z,13.27
2019-01-09T06:17:13.244Z,12.60
2019-01-09T06:19:41.242Z,11.13
2019-01-09T06:24:51.345Z,13.60
2019-01-09T06:27:19.422Z,11.20
2019-01-09T06:29:47.415Z,13.50
2019-01-09T06:32:15.609Z,9.47
2019-01-09T06:34:43.485Z,9.07
2019-01-09T06:37:11.409Z,9.27
2019-01-09T06:39:39.341Z,9.37
2019-01-09T06:42:07.313Z,8.00
2019-01-09T06:44:35.315Z,8.33
2019-01-09T06:47:03.346Z,9.70
2019-01-09T06:49:31.352Z,14.77
2019-01-09T06:51:59.314Z,11.80
2019-01-09T06:54:27.295Z,9.80
2019-01-09T06:56:55.233Z,10.23
2019-01-09T06:59:23.224Z,8.60
2019-01-09T07:01:51.276Z,8.53
2019-01-09T07:04:19.282Z,9.90
2019-01-09T07:06:47.373Z,8.87
2019-01-09T07:09:15.275Z,9.57
2019-01-09T07:11:43.264Z,10.27
2019-01-09T07:14:11.223Z,9.93
2019-01-09T07:16:39.191Z,9.97
2019-01-09T07:19:07.172Z,10.43
2019-01-09T07:21:35.143Z,11.87
2019-01-09T07:24:03.042Z,10.60
2019-01-09T07:26:31.066Z,12.70
2019-01-09T07:28:59.097Z,14.33
2019-01-09T07:31:27.105Z,16.27
2019-01-09T07:33:55.094Z,14.20
2019-01-09T07:36:23.193Z,13.00
2019-01-09T07:38:51.117Z,10.90
2019-01-09T07:41:19.112Z,10.80
2019-01-09T07:43:47.159Z,10.33
2019-01-09T07:46:15.124Z,12.33
2019-01-09T07:48:43.144Z,10.50
2019-01-09T07:51:11.161Z,10.63
2019-01-09T07:53:39.490Z,11.23
2019-01-09T07:56:07.509Z,11.70
2019-01-09T07:58:35.488Z,11.97
2019-01-09T08:01:03.522Z,8.80
2019-01-09T08:03:31.514Z,8.80
2019-01-09T08:05:59.512Z,9.50
2019-01-09T08:08:27.590Z,12.27
2019-01-09T08:10:55.532Z,13.90
2019-01-09T08:13:23.517Z,14.43
2019-01-09T08:15:51.484Z,15.80
2019-01-09T08:18:19.451Z,18.53
2019-01-09T08:20:47.443Z,18.90
2019-01-09T08:23:15.770Z,17.20
2019-01-09T08:25:43.798Z,15.60
2019-01-09T08:28:11.755Z,16.50
2019-01-09T08:30:39.802Z,19.67
2019-01-09T08:33:07.750Z,14.80
2019-01-09T08:35:35.759Z,19.30
2019-01-09T08:38:03.684Z,15.53
2019-01-09T08:40:31.765Z,15.03
2019-01-09T08:42:59.885Z,15.53
2019-01-09T08:45:27.944Z,15.73
2019-01-09T08:47:59.907Z,11.77
2019-01-09T08:50:27.892Z,12.10
2019-01-09T08:52:55.817Z,14.50
2019-01-09T08:55:23.803Z,14.57
2019-01-09T08:57:51.748Z,13.17
2019-01-09T09:00:19.748Z,11.60
2019-01-09T09:02:47.704Z,11.17
2019-01-09T09:05:15.790Z,14.60
2019-01-09T09:08:11.982Z,11.47
2019-01-09T09:10:33.939Z,9.40
2019-01-09T09:13:01.900Z,18.13
2019-01-09T09:15:30.475Z,16.77
2019-01-09T09:17:58.508Z,18.77
2019-01-09T09:20:26.421Z,17.43
2019-01-09T09:22:54.412Z,17.03
2019-01-09T09:25:22.378Z,18.00
2019-01-09T09:27:50.312Z,20.53
2019-01-09T09:30:18.284Z,18.70
2019-01-09T09:32:46.248Z,16.23
2019-01-09T09:35:14.227Z,15.13
2019-01-09T09:37:42.314Z,15.00
2019-01-09T09:40:11.579Z,16.40
2019-01-09T09:42:39.599Z,16.70
2019-01-09T09:45:08.173Z,21.70
2019-01-09T09:47:36.142Z,30.13
2019-01-09T09:50:05.170Z,22.73
2019-01-09T09:52:33.091Z,18.37
2019-01-09T09:57:43.224Z,17.43
2019-01-09T10:00:13.425Z,16.63
2019-01-09T10:02:41.448Z,16.57
2019-01-09T10:05:09.725Z,15.17
2019-01-09T10:07:37.729Z,19.30
2019-01-09T10:10:07.129Z,17.83
2019-01-09T10:12:35.190Z,19.80
2019-01-09T10:15:03.256Z,22.10
2019-01-09T10:17:31.327Z,16.87
2019-01-09T10:19:59.286Z,16.70
2019-01-09T10:25:09.047Z,16.53
2019-01-09T10:27:37.026Z,16.90
2019-01-09T10:30:05.918Z,17.00
2019-01-09T10:32:34.001Z,22.67
2019-01-09T10:35:02.064Z,16.77
2019-01-09T10:37:30.115Z,15.77
2019-01-09T10:39:58.091Z,11.73
2019-01-09T10:42:26.053Z,10.33
2019-01-09T10:44:54.075Z,12.87
2019-01-09T10:47:21.991Z,15.87
2019-01-09T10:49:50.046Z,13.93
2019-01-09T10:52:18.045Z,26.30
2019-01-09T10:54:46.136Z,51.53
2019-01-09T10:57:14.272Z,15.17
2019-01-09T10:59:42.277Z,15.90
2019-01-09T11:02:10.211Z,12.13
2019-01-09T11:04:38.282Z,12.80
2019-01-09T11:07:06.547Z,11.57
2019-01-09T11:09:34.521Z,11.53
2019-01-09T11:12:02.532Z,9.73
2019-01-09T11:14:31.165Z,9.43
2019-01-09T11:16:59.224Z,8.13
2019-01-09T11:19:27.115Z,8.70
2019-01-09T11:21:55.310Z,9.30
2019-01-09T11:24:23.374Z,10.83
2019-01-09T11:26:51.630Z,8.33
2019-01-09T11:29:19.637Z,6.80
2019-01-09T11:31:47.619Z,6.20
2019-01-09T11:34:15.665Z,12.57
2019-01-09T11:36:43.639Z,17.13
2019-01-09T11:39:11.824Z,68.73
2019-01-09T11:41:39.792Z,11.17
2019-01-09T11:44:07.737Z,18.87
2019-01-09T11:46:35.737Z,9.20
2019-01-09T11:49:03.973Z,10.77
2019-01-09T11:51:31.963Z,12.90
2019-01-09T11:53:59.959Z,20.63
2019-01-09T11:56:28.211Z,13.77
2019-01-09T11:58:56.154Z,7.83
2019-01-09T12:01:24.136Z,9.03
2019-01-09T12:03:52.185Z,8.03
2019-01-09T12:06:20.210Z,10.20
2019-01-09T12:11:30.352Z,6.67
2019-01-09T12:14:17.325Z,6.80
2019-01-09T12:16:45.246Z,8.13
2019-01-09T12:19:13.315Z,7.60
2019-01-09T12:21:41.273Z,6.97
2019-01-09T12:24:09.559Z,7.17
2019-01-09T12:26:37.512Z,9.83
2019-01-09T12:29:05.498Z,14.37
2019-01-09T12:31:33.500Z,8.50
2019-01-09T12:34:01.783Z,6.07
2019-01-09T12:36:30.100Z,7.10
2019-01-09T12:38:58.065Z,6.17
2019-01-09T12:41:26.049Z,7.07
2019-01-09T12:43:54.088Z,6.10
2019-01-09T12:46:22.078Z,6.97
2019-01-09T12:48:50.164Z,7.50
2019-01-09T12:54:00.322Z,8.80
2019-01-09T12:56:28.327Z,15.20
2019-01-09T12:58:56.257Z,7.60
2019-01-09T13:01:24.600Z,8.03
2019-01-09T13:04:13.329Z,6.80
2019-01-09T13:06:41.284Z,7.83
2019-01-09T13:09:09.873Z,9.93
2019-01-09T13:11:38.127Z,11.17
2019-01-09T13:14:07.274Z,8.97
2019-01-09T13:16:35.569Z,10.33
2019-01-09T13:19:03.509Z,7.70
2019-01-09T13:21:31.558Z,7.33
2019-01-09T13:23:59.530Z,6.87
2019-01-09T13:26:27.793Z,7.30
2019-01-09T13:28:55.773Z,7.50
2019-01-09T13:31:24.028Z,7.33
2019-01-09T13:33:52.049Z,10.80
2019-01-09T13:36:20.087Z,8.20
2019-01-09T13:38:48.062Z,8.77
2019-01-09T13:41:16.235Z,7.13
2019-01-09T13:43:44.867Z,6.70
2019-01-09T13:46:12.781Z,6.73
2019-01-09T13:48:40.719Z,7.07
2019-01-09T13:51:09.597Z,6.80
2019-01-09T13:53:38.775Z,6.37
2019-01-09T13:56:06.818Z,8.93
2019-01-09T13:58:34.780Z,8.67
2019-01-09T14:01:02.759Z,8.73
2019-01-09T14:03:30.711Z,6.60
2019-01-09T14:05:58.673Z,6.50
2019-01-09T14:08:26.627Z,6.40
2019-01-09T14:10:54.619Z,6.87
2019-01-09T14:13:22.575Z,6.50
2019-01-09T14:15:50.812Z,6.40
2019-01-09T14:18:18.846Z,6.77
2019-01-09T14:20:46.788Z,7.70
2019-01-09T14:23:14.936Z,8.80
2019-01-09T14:25:42.856Z,8.10
2019-01-09T14:28:10.808Z,6.10
2019-01-09T14:30:38.774Z,7.97
2019-01-09T14:33:07.481Z,6.80
2019-01-09T14:38:17.732Z,6.40
2019-01-09T14:40:45.716Z,6.37
2019-01-09T14:43:13.658Z,8.53
2019-01-09T14:45:43.546Z,20.60
2019-01-09T14:48:11.381Z,36.03
2019-01-09T14:50:39.415Z,10.07
2019-01-09T14:53:07.436Z,7.33
2019-01-09T14:55:35.460Z,6.73
2019-01-09T14:58:03.454Z,6.13
2019-01-09T15:00:31.526Z,6.90
2019-01-09T15:02:59.567Z,9.70
2019-01-09T15:05:27.593Z,7.80
2019-01-09T15:07:55.609Z,8.23
2019-01-09T15:10:42.863Z,7.63
2019-01-09T15:13:10.924Z,10.97
2019-01-09T15:15:39.081Z,10.60
2019-01-09T15:18:07.052Z,6.93
2019-01-09T15:20:35.021Z,7.53
2019-01-09T15:23:03.288Z,21.80
2019-01-09T15:25:31.361Z,33.47
2019-01-09T15:27:59.359Z,11.03
2019-01-09T15:30:28.249Z,11.57
2019-01-09T15:32:56.238Z,10.70
2019-01-09T15:35:24.308Z,7.90
2019-01-09T15:37:52.248Z,9.67
2019-01-09T15:40:21.273Z,15.87
2019-01-09T15:42:49.425Z,12.57
2019-01-09T15:45:17.429Z,18.30
2019-01-09T15:47:45.446Z,9.23
2019-01-09T15:50:14.377Z,9.90
2019-01-09T15:55:24.927Z,13.40
2019-01-09T15:57:53.307Z,8.77
2019-01-09T16:00:40.325Z,13.83
2019-01-09T16:03:08.299Z,9.30
2019-01-09T16:05:36.461Z,7.07
2019-01-09T16:10:46.966Z,7.00
2019-01-09T16:13:14.908Z,10.23
2019-01-09T16:15:43.181Z,10.97
2019-01-09T16:18:11.247Z,10.13
2019-01-09T16:20:39.197Z,8.47
2019-01-09T16:23:07.221Z,7.83
2019-01-09T16:25:35.257Z,8.20
2019-01-09T16:28:03.225Z,10.00
2019-01-09T16:30:50.267Z,8.40
2019-01-09T16:33:18.240Z,7.50
2019-01-09T16:35:46.179Z,9.03
2019-01-09T16:38:14.136Z,9.10
2019-01-09T16:40:42.128Z,9.40
2019-01-09T16:43:10.251Z,7.50
2019-01-09T16:48:20.490Z,7.50
2019-01-09T16:50:48.533Z,6.20
2019-01-09T16:53:16.512Z,7.20
2019-01-09T16:55:44.570Z,7.40
2019-01-09T16:58:12.557Z,8.17
2019-01-09T17:00:40.775Z,8.90
2019-01-09T17:03:09.020Z,7.80
2019-01-09T17:05:37.362Z,7.37
2019-01-09T17:08:05.545Z,6.17
2019-01-09T17:10:33.536Z,6.40
2019-01-09T17:13:01.596Z,6.03
2019-01-09T17:15:29.676Z,6.77
2019-01-09T17:17:57.729Z,8.30
2019-01-09T17:20:26.152Z,31.27
2019-01-09T17:22:54.213Z,12.00
2019-01-09T17:25:22.279Z,9.40
2019-01-09T17:27:50.258Z,6.83
2019-01-09T17:30:37.269Z,6.90
2019-01-09T17:33:07.261Z,8.07
2019-01-09T17:35:54.033Z,7.67
2019-01-09T17:38:22.099Z,7.30
2019-01-09T17:40:50.106Z,8.57
2019-01-09T17:43:18.099Z,7.93
2019-01-09T17:45:46.144Z,8.90
2019-01-09T17:48:14.113Z,8.70
2019-01-09T17:50:42.503Z,6.87
2019-01-09T17:53:10.629Z,7.20
2019-01-09T17:55:38.643Z,7.40
2019-01-09T17:58:07.051Z,8.20
2019-01-09T18:00:36.374Z,7.87
2019-01-09T18:03:04.541Z,8.33
2019-01-09T18:05:32.586Z,8.10
2019-01-09T18:08:00.635Z,8.97
2019-01-09T18:10:28.968Z,9.70
2019-01-09T18:12:56.999Z,7.37
2019-01-09T18:15:25.245Z,7.77
2019-01-09T18:17:53.221Z,7.70
2019-01-09T18:20:40.296Z,7.60
2019-01-09T18:23:08.343Z,7.93
2019-01-09T18:25:36.610Z,8.23
2019-01-09T18:28:04.649Z,9.30
2019-01-09T18:30:51.608Z,8.87
2019-01-09T18:33:39.021Z,10.10
2019-01-09T18:39:05.383Z,8.30
2019-01-09T18:41:52.513Z,7.23
2019-01-09T18:44:39.533Z,8.27
2019-01-09T18:47:26.682Z,7.07
2019-01-09T18:50:13.680Z,7.87
2019-01-09T18:53:00.736Z,10.50
2019-01-09T18:55:28.853Z,9.10
2019-01-09T18:57:56.857Z,10.50
2019-01-09T19:00:44.151Z,9.77
2019-01-09T19:03:12.103Z,9.53
2019-01-09T19:05:53.938Z,9.50
2019-01-09T19:08:21.951Z,11.77
2019-01-09T19:10:49.878Z,9.50
2019-01-09T19:16:00.009Z,10.87
2019-01-09T19:18:28.055Z,11.80
2019-01-09T19:20:56.123Z,12.20
2019-01-09T19:23:24.184Z,11.77
2019-01-09T19:25:52.164Z,9.43
2019-01-09T19:28:20.233Z,9.20
2019-01-09T19:30:48.239Z,9.53
2019-01-09T19:33:16.352Z,11.47
2019-01-09T19:35:44.775Z,11.77
2019-01-09T19:38:12.840Z,11.60
2019-01-09T19:40:40.798Z,10.47
2019-01-09T19:43:08.794Z,10.23
2019-01-09T19:45:36.708Z,8.80
2019-01-09T19:48:04.685Z,8.80
2019-01-09T19:53:14.861Z,8.70
2019-01-09T19:55:43.142Z,8.93
2019-01-09T19:58:11.129Z,9.30
2019-01-09T20:00:40.101Z,11.80
2019-01-09T20:03:08.088Z,11.57
2019-01-09T20:05:36.094Z,9.23
2019-01-09T20:08:04.260Z,7.53
2019-01-09T20:10:32.281Z,8.00
2019-01-09T20:13:00.407Z,8.60
2019-01-09T20:15:28.447Z,8.67
2019-01-09T20:17:56.453Z,7.80
2019-01-09T20:20:24.670Z,11.30
2019-01-09T20:22:52.725Z,13.37
2019-01-09T20:25:21.142Z,14.20
2019-01-09T20:27:49.240Z,14.30
2019-01-09T20:30:19.563Z,12.63
2019-01-09T20:32:48.531Z,13.00
2019-01-09T20:35:16.633Z,12.67
2019-01-09T20:37:44.550Z,11.40
2019-01-09T20:40:12.854Z,10.90
2019-01-09T20:42:40.895Z,11.80
2019-01-09T20:45:10.023Z,13.40
2019-01-09T20:47:38.093Z,12.47
2019-01-09T20:50:07.326Z,12.30
2019-01-09T20:52:35.713Z,10.80
2019-01-09T20:55:24.211Z,11.17
2019-01-09T20:57:52.547Z,12.27
2019-01-09T21:00:21.917Z,10.40
2019-01-09T21:03:09.109Z,10.57
2019-01-09T21:05:41.399Z,11.07
2019-01-09T21:10:52.571Z,10.57
2019-01-09T21:13:20.648Z,11.23
2019-01-09T21:15:48.623Z,9.67
2019-01-09T21:18:16.584Z,9.53
2019-01-09T21:20:44.643Z,10.47
2019-01-09T21:23:12.654Z,10.50
2019-01-09T21:28:22.835Z,9.77
2019-01-09T21:31:09.851Z,12.03
2019-01-09T21:33:37.915Z,11.00
2019-01-09T21:36:06.379Z,10.60
2019-01-09T21:38:34.329Z,8.50
2019-01-09T21:41:02.219Z,9.40
2019-01-09T21:43:49.200Z,10.93
2019-01-09T21:48:59.316Z,9.00
2019-01-09T21:51:27.390Z,11.43
2019-01-09T21:53:55.359Z,12.60
2019-01-09T21:56:23.374Z,11.20
2019-01-09T21:58:51.389Z,12.17
2019-01-09T22:01:19.453Z,10.10
2019-01-09T22:03:47.490Z,8.30
2019-01-09T22:06:15.475Z,7.43
2019-01-09T22:08:43.389Z,7.57
2019-01-09T22:11:30.337Z,8.10
2019-01-09T22:13:58.275Z,8.30
2019-01-09T22:16:26.201Z,10.60
2019-01-09T22:18:54.637Z,9.77
2019-01-09T22:21:22.627Z,9.50
2019-01-09T22:23:50.600Z,8.23
2019-01-09T22:26:18.595Z,8.37
2019-01-09T22:28:46.649Z,8.30
2019-01-09T22:33:56.729Z,8.37
2019-01-09T22:36:24.728Z,10.00
2019-01-09T22:38:52.796Z,11.67
2019-01-09T22:41:20.808Z,11.27
2019-01-09T22:43:48.820Z,11.23
2019-01-09T22:46:16.773Z,8.67
2019-01-09T22:51:27.369Z,7.70
2019-01-09T22:53:55.734Z,11.67
2019-01-09T22:56:23.676Z,9.40
2019-01-09T22:58:51.659Z,8.80
2019-01-09T23:01:20.885Z,11.20
2019-01-09T23:03:49.368Z,10.07
2019-01-09T23:06:17.725Z,9.53
2019-01-09T23:08:45.982Z,7.40
2019-01-09T23:11:13.963Z,7.77
2019-01-09T23:13:41.955Z,7.37
2019-01-09T23:16:30.368Z,8.83
2019-01-09T23:18:58.433Z,8.07
2019-01-09T23:21:26.319Z,8.20
2019-01-09T23:23:54.432Z,10.03
2019-01-09T23:26:22.523Z,8.83
2019-01-09T23:28:50.552Z,9.30
2019-01-09T23:31:18.629Z,8.07
2019-01-09T23:33:46.576Z,8.10
2019-01-09T23:36:14.568Z,8.33
2019-01-09T23:38:42.543Z,8.83
2019-01-09T23:41:10.504Z,7.63
2019-01-09T23:43:38.461Z,7.10
2019-01-09T23:46:06.542Z,9.07
2019-01-09T23:48:34.517Z,10.20
2019-01-09T23:51:02.488Z,9.93
2019-01-09T23:53:30.535Z,7.53
2019-01-09T23:55:58.515Z,8.00
2019-01-09T23:58:26.440Z,7.35
